Coral Ruby — 3ERR6 — position and weather

sailwx.info

Track history (hours):
 
Tides and Currents Weather Stations Pressure Air Temp Water Temp Dewpoint Dewpoint Depression Visibility Wind Speed Wind Dir Waves Ship Positions

Coral Ruby

Last reported at 2018-Feb-12 21:01 UTC. Time now 2018-Feb-18 05:21 UTC.
Position N 34°50' E 130°47'.

Length 225 m; draft 12.7 m.

Type: Cargo ship. MMSI: 370150000.

Date/timePositionNaut miles runAvg speedWind from/ knotsBaromVisibWave heightAir tempDewpointWater temp
2018-Feb-12 21:01N 34°50' E 130°47'011.3
2018-Feb-12 21:00N 34°50' E 130°47'510.8
2018-Feb-12 20:30N 34°47' E 130°42'1211.1
2018-Feb-12 19:25N 34°39' E 130°31'511.4
2018-Feb-12 19:00N 34°36' E 130°27'511.1
2018-Feb-12 18:31N 34°32' E 130°22'611.3
2018-Feb-12 18:01N 34°29' E 130°16'611.6
2018-Feb-12 17:31N 34°25' E 130°10'610.9
2018-Feb-12 17:00N 34°21' E 130°06'611.2
2018-Feb-12 16:28N 34°17' E 130°01'511.6
2018-Feb-12 16:00N 34°13' E 129°56'  
Track history (hours):
 
Tides and Currents Weather Stations Pressure Air Temp Water Temp Dewpoint Dewpoint Depression Visibility Wind Speed Wind Dir Waves Ship Positions

Coral Ruby

Last reported at 2018-Feb-12 21:01 UTC. Time now 2018-Feb-18 05:21 UTC.
Position N 34°50' E 130°47'.

Length 225 m; draft 12.7 m.

Type: Cargo ship. MMSI: 370150000.

Date/timePositionNaut miles runAvg speedWind from/ knotsBaromVisibWave heightAir tempDewpointWater temp
2018-Feb-12 21:01N 34°50' E 130°47'011.3
2018-Feb-12 21:00N 34°50' E 130°47'510.8
2018-Feb-12 20:30N 34°47' E 130°42'1211.1
2018-Feb-12 19:25N 34°39' E 130°31'511.4
2018-Feb-12 19:00N 34°36' E 130°27'511.1
2018-Feb-12 18:31N 34°32' E 130°22'611.3
2018-Feb-12 18:01N 34°29' E 130°16'611.6
2018-Feb-12 17:31N 34°25' E 130°10'610.9
2018-Feb-12 17:00N 34°21' E 130°06'611.2
2018-Feb-12 16:28N 34°17' E 130°01'511.6
2018-Feb-12 16:00N 34°13' E 129°56'  

Dump ship's entire track history